sensor_id;sensor_type;location;lat;lon;timestamp;P1;durP1;ratioP1;P2;durP2;ratioP2
59972;SDS011;55298;-36.624;-64.282;2023-03-01T00:00:43;10.45;;;5.35;;
59972;SDS011;55298;-36.624;-64.282;2023-03-01T00:03:12;10.18;;;5.28;;
59972;SDS011;55298;-36.624;-64.282;2023-03-01T00:05:47;13.15;;;5.95;;
59972;SDS011;55298;-36.624;-64.282;2023-03-01T00:08:15;9.82;;;5.15;;
59972;SDS011;55298;-36.624;-64.282;2023-03-01T00:10:42;10.07;;;5.47;;
59972;SDS011;55298;-36.624;-64.282;2023-03-01T00:13:10;8.75;;;4.53;;
59972;SDS011;55298;-36.624;-64.282;2023-03-01T00:15:39;8.60;;;5.63;;
59972;SDS011;55298;-36.624;-64.282;2023-03-01T00:18:09;9.48;;;5.18;;
59972;SDS011;55298;-36.624;-64.282;2023-03-01T00:20:48;8.77;;;4.53;;
59972;SDS011;55298;-36.624;-64.282;2023-03-01T00:23:21;10.05;;;4.80;;
59972;SDS011;55298;-36.624;-64.282;2023-03-01T00:25:49;9.70;;;4.63;;
59972;SDS011;55298;-36.624;-64.282;2023-03-01T00:28:18;10.35;;;5.07;;
59972;SDS011;55298;-36.624;-64.282;2023-03-01T00:30:46;6.95;;;4.20;;
59972;SDS011;55298;-36.624;-64.282;2023-03-01T00:33:15;6.88;;;4.13;;
59972;SDS011;55298;-36.624;-64.282;2023-03-01T00:35:43;10.88;;;4.93;;
59972;SDS011;55298;-36.624;-64.282;2023-03-01T00:38:11;10.10;;;5.18;;
59972;SDS011;55298;-36.624;-64.282;2023-03-01T00:40:39;7.97;;;4.60;;
59972;SDS011;55298;-36.624;-64.282;2023-03-01T00:43:06;11.32;;;4.97;;
59972;SDS011;55298;-36.624;-64.282;2023-03-01T00:45:35;9.77;;;5.25;;
59972;SDS011;55298;-36.624;-64.282;2023-03-01T00:48:03;9.95;;;4.80;;
59972;SDS011;55298;-36.624;-64.282;2023-03-01T00:50:31;7.30;;;4.60;;
59972;SDS011;55298;-36.624;-64.282;2023-03-01T00:52:59;7.22;;;4.40;;
59972;SDS011;55298;-36.624;-64.282;2023-03-01T00:55:26;6.97;;;4.72;;
59972;SDS011;55298;-36.624;-64.282;2023-03-01T00:57:54;8.60;;;4.75;;
59972;SDS011;55298;-36.624;-64.282;2023-03-01T01:00:23;9.40;;;4.63;;
59972;SDS011;55298;-36.624;-64.282;2023-03-01T01:02:52;7.88;;;4.68;;
59972;SDS011;55298;-36.624;-64.282;2023-03-01T01:05:20;6.70;;;4.50;;
59972;SDS011;55298;-36.624;-64.282;2023-03-01T01:07:48;5.80;;;3.97;;
59972;SDS011;55298;-36.624;-64.282;2023-03-01T01:10:16;6.25;;;4.28;;
59972;SDS011;55298;-36.624;-64.282;2023-03-01T01:12:46;6.88;;;4.15;;
59972;SDS011;55298;-36.624;-64.282;2023-03-01T01:15:14;7.43;;;4.45;;
59972;SDS011;55298;-36.624;-64.282;2023-03-01T01:17:42;6.35;;;4.32;;
59972;SDS011;55298;-36.624;-64.282;2023-03-01T01:20:11;9.00;;;5.30;;
59972;SDS011;55298;-36.624;-64.282;2023-03-01T01:22:38;7.50;;;4.82;;
59972;SDS011;55298;-36.624;-64.282;2023-03-01T01:25:06;10.32;;;5.45;;
59972;SDS011;55298;-36.624;-64.282;2023-03-01T01:27:34;9.48;;;4.95;;
59972;SDS011;55298;-36.624;-64.282;2023-03-01T01:30:03;11.30;;;4.75;;
59972;SDS011;55298;-36.624;-64.282;2023-03-01T01:32:31;9.02;;;4.95;;
59972;SDS011;55298;-36.624;-64.282;2023-03-01T01:35:00;9.55;;;4.43;;
59972;SDS011;55298;-36.624;-64.282;2023-03-01T01:37:28;8.35;;;5.15;;
59972;SDS011;55298;-36.624;-64.282;2023-03-01T01:39:59;13.32;;;5.15;;
59972;SDS011;55298;-36.624;-64.282;2023-03-01T01:42:29;8.65;;;4.75;;
59972;SDS011;55298;-36.624;-64.282;2023-03-01T01:47:44;11.30;;;5.82;;
59972;SDS011;55298;-36.624;-64.282;2023-03-01T01:50:14;16.70;;;5.18;;
59972;SDS011;55298;-36.624;-64.282;2023-03-01T01:52:45;8.82;;;5.30;;
59972;SDS011;55298;-36.624;-64.282;2023-03-01T01:55:16;9.85;;;5.45;;
59972;SDS011;55298;-36.624;-64.282;2023-03-01T01:57:50;7.68;;;5.13;;
59972;SDS011;55298;-36.624;-64.282;2023-03-01T02:00:25;11.43;;;5.10;;
59972;SDS011;55298;-36.624;-64.282;2023-03-01T02:02:56;8.73;;;4.65;;
59972;SDS011;55298;-36.624;-64.282;2023-03-01T02:05:29;14.63;;;6.20;;
59972;SDS011;55298;-36.624;-64.282;2023-03-01T02:08:06;16.15;;;6.80;;
59972;SDS011;55298;-36.624;-64.282;2023-03-01T02:10:34;17.55;;;7.20;;
59972;SDS011;55298;-36.624;-64.282;2023-03-01T02:13:03;11.75;;;7.32;;
59972;SDS011;55298;-36.624;-64.282;2023-03-01T02:15:33;13.25;;;7.13;;
59972;SDS011;55298;-36.624;-64.282;2023-03-01T02:18:03;13.45;;;7.38;;
59972;SDS011;55298;-36.624;-64.282;2023-03-01T02:20:40;15.50;;;8.25;;
59972;SDS011;55298;-36.624;-64.282;2023-03-01T02:23:19;24.20;;;10.07;;
59972;SDS011;55298;-36.624;-64.282;2023-03-01T02:25:52;13.70;;;8.40;;
59972;SDS011;55298;-36.624;-64.282;2023-03-01T02:28:40;10.18;;;6.00;;
59972;SDS011;55298;-36.624;-64.282;2023-03-01T02:31:10;10.57;;;5.72;;
59972;SDS011;55298;-36.624;-64.282;2023-03-01T02:33:50;6.18;;;4.60;;
59972;SDS011;55298;-36.624;-64.282;2023-03-01T02:36:20;9.55;;;4.90;;
59972;SDS011;55298;-36.624;-64.282;2023-03-01T02:38:53;10.35;;;5.20;;
59972;SDS011;55298;-36.624;-64.282;2023-03-01T02:41:25;9.48;;;5.10;;
59972;SDS011;55298;-36.624;-64.282;2023-03-01T02:43:55;9.82;;;4.97;;
59972;SDS011;55298;-36.624;-64.282;2023-03-01T02:46:24;9.98;;;5.00;;
59972;SDS011;55298;-36.624;-64.282;2023-03-01T02:48:54;5.72;;;4.05;;
59972;SDS011;55298;-36.624;-64.282;2023-03-01T02:51:31;8.02;;;4.47;;
59972;SDS011;55298;-36.624;-64.282;2023-03-01T02:54:16;8.48;;;5.20;;
59972;SDS011;55298;-36.624;-64.282;2023-03-01T02:56:56;9.68;;;4.53;;
59972;SDS011;55298;-36.624;-64.282;2023-03-01T02:59:27;6.88;;;4.38;;
59972;SDS011;55298;-36.624;-64.282;2023-03-01T03:01:58;9.07;;;5.35;;
59972;SDS011;55298;-36.624;-64.282;2023-03-01T03:04:28;12.20;;;5.38;;
59972;SDS011;55298;-36.624;-64.282;2023-03-01T03:06:57;11.48;;;5.05;;
59972;SDS011;55298;-36.624;-64.282;2023-03-01T03:09:25;8.43;;;4.65;;
59972;SDS011;55298;-36.624;-64.282;2023-03-01T03:11:54;9.15;;;4.90;;
59972;SDS011;55298;-36.624;-64.282;2023-03-01T03:14:21;8.00;;;4.63;;
59972;SDS011;55298;-36.624;-64.282;2023-03-01T03:16:49;8.55;;;4.70;;
59972;SDS011;55298;-36.624;-64.282;2023-03-01T03:19:17;7.18;;;4.38;;
59972;SDS011;55298;-36.624;-64.282;2023-03-01T03:21:46;7.60;;;5.40;;
59972;SDS011;55298;-36.624;-64.282;2023-03-01T03:24:16;9.38;;;5.07;;
59972;SDS011;55298;-36.624;-64.282;2023-03-01T03:26:44;5.07;;;3.95;;
59972;SDS011;55298;-36.624;-64.282;2023-03-01T03:29:11;5.20;;;3.78;;
59972;SDS011;55298;-36.624;-64.282;2023-03-01T03:31:39;9.27;;;4.22;;
59972;SDS011;55298;-36.624;-64.282;2023-03-01T03:34:07;7.97;;;5.22;;
59972;SDS011;55298;-36.624;-64.282;2023-03-01T03:36:43;10.32;;;4.90;;
59972;SDS011;55298;-36.624;-64.282;2023-03-01T03:39:11;10.35;;;4.88;;
59972;SDS011;55298;-36.624;-64.282;2023-03-01T03:41:38;9.48;;;4.97;;
59972;SDS011;55298;-36.624;-64.282;2023-03-01T03:44:06;12.18;;;5.90;;
59972;SDS011;55298;-36.624;-64.282;2023-03-01T03:46:34;9.63;;;5.43;;
59972;SDS011;55298;-36.624;-64.282;2023-03-01T03:49:01;8.73;;;5.20;;
59972;SDS011;55298;-36.624;-64.282;2023-03-01T03:51:29;7.10;;;4.63;;
59972;SDS011;55298;-36.624;-64.282;2023-03-01T03:53:57;6.72;;;4.68;;
59972;SDS011;55298;-36.624;-64.282;2023-03-01T03:56:24;8.18;;;4.30;;
59972;SDS011;55298;-36.624;-64.282;2023-03-01T03:58:52;6.38;;;4.00;;
59972;SDS011;55298;-36.624;-64.282;2023-03-01T04:01:20;7.70;;;4.20;;
59972;SDS011;55298;-36.624;-64.282;2023-03-01T04:03:48;6.45;;;4.00;;
59972;SDS011;55298;-36.624;-64.282;2023-03-01T04:06:19;8.23;;;4.07;;
59972;SDS011;55298;-36.624;-64.282;2023-03-01T04:08:48;7.30;;;4.75;;
59972;SDS011;55298;-36.624;-64.282;2023-03-01T04:11:16;6.93;;;4.38;;
59972;SDS011;55298;-36.624;-64.282;2023-03-01T04:13:54;8.65;;;4.30;;
59972;SDS011;55298;-36.624;-64.282;2023-03-01T04:16:23;10.00;;;5.00;;
59972;SDS011;55298;-36.624;-64.282;2023-03-01T04:18:51;9.50;;;4.60;;
59972;SDS011;55298;-36.624;-64.282;2023-03-01T04:21:19;11.07;;;5.30;;
59972;SDS011;55298;-36.624;-64.282;2023-03-01T04:23:47;5.60;;;4.97;;
59972;SDS011;55298;-36.624;-64.282;2023-03-01T04:26:19;8.88;;;4.78;;
59972;SDS011;55298;-36.624;-64.282;2023-03-01T04:28:46;9.25;;;5.88;;
59972;SDS011;55298;-36.624;-64.282;2023-03-01T04:31:16;9.85;;;6.35;;
59972;SDS011;55298;-36.624;-64.282;2023-03-01T04:33:47;7.25;;;6.00;;
59972;SDS011;55298;-36.624;-64.282;2023-03-01T04:36:18;10.50;;;7.05;;
59972;SDS011;55298;-36.624;-64.282;2023-03-01T04:38:48;12.07;;;8.60;;
59972;SDS011;55298;-36.624;-64.282;2023-03-01T04:41:16;17.65;;;11.52;;
59972;SDS011;55298;-36.624;-64.282;2023-03-01T04:43:47;19.23;;;15.45;;
59972;SDS011;55298;-36.624;-64.282;2023-03-01T04:46:16;18.90;;;15.93;;
59972;SDS011;55298;-36.624;-64.282;2023-03-01T04:48:45;17.83;;;14.70;;
59972;SDS011;55298;-36.624;-64.282;2023-03-01T04:51:13;16.52;;;11.57;;
59972;SDS011;55298;-36.624;-64.282;2023-03-01T04:53:42;13.75;;;10.07;;
59972;SDS011;55298;-36.624;-64.282;2023-03-01T04:56:10;15.65;;;10.45;;
59972;SDS011;55298;-36.624;-64.282;2023-03-01T04:58:39;14.68;;;9.90;;
59972;SDS011;55298;-36.624;-64.282;2023-03-01T05:01:08;12.90;;;10.45;;
59972;SDS011;55298;-36.624;-64.282;2023-03-01T05:03:42;14.55;;;11.00;;
59972;SDS011;55298;-36.624;-64.282;2023-03-01T05:06:11;18.27;;;11.40;;
59972;SDS011;55298;-36.624;-64.282;2023-03-01T05:08:40;18.45;;;11.18;;
59972;SDS011;55298;-36.624;-64.282;2023-03-01T05:11:10;14.43;;;10.77;;
59972;SDS011;55298;-36.624;-64.282;2023-03-01T05:13:40;15.80;;;10.73;;
59972;SDS011;55298;-36.624;-64.282;2023-03-01T05:16:09;12.98;;;8.38;;
59972;SDS011;55298;-36.624;-64.282;2023-03-01T05:18:37;9.40;;;6.85;;
59972;SDS011;55298;-36.624;-64.282;2023-03-01T05:21:07;8.32;;;6.43;;
59972;SDS011;55298;-36.624;-64.282;2023-03-01T05:23:41;9.30;;;6.00;;
59972;SDS011;55298;-36.624;-64.282;2023-03-01T05:26:09;10.48;;;5.70;;
59972;SDS011;55298;-36.624;-64.282;2023-03-01T05:28:38;5.72;;;5.13;;
59972;SDS011;55298;-36.624;-64.282;2023-03-01T05:31:06;6.22;;;5.00;;
59972;SDS011;55298;-36.624;-64.282;2023-03-01T05:33:36;5.53;;;4.60;;
59972;SDS011;55298;-36.624;-64.282;2023-03-01T05:36:05;5.28;;;4.40;;
59972;SDS011;55298;-36.624;-64.282;2023-03-01T05:38:35;6.72;;;4.47;;
59972;SDS011;55298;-36.624;-64.282;2023-03-01T05:41:04;4.95;;;4.28;;
59972;SDS011;55298;-36.624;-64.282;2023-03-01T05:43:39;4.45;;;4.05;;
59972;SDS011;55298;-36.624;-64.282;2023-03-01T05:46:09;5.15;;;4.18;;
59972;SDS011;55298;-36.624;-64.282;2023-03-01T05:48:38;12.95;;;7.78;;
59972;SDS011;55298;-36.624;-64.282;2023-03-01T05:51:06;6.78;;;5.20;;
59972;SDS011;55298;-36.624;-64.282;2023-03-01T05:53:34;4.97;;;4.47;;
59972;SDS011;55298;-36.624;-64.282;2023-03-01T05:56:03;5.53;;;4.32;;
59972;SDS011;55298;-36.624;-64.282;2023-03-01T05:58:32;6.20;;;4.45;;
59972;SDS011;55298;-36.624;-64.282;2023-03-01T06:00:59;8.50;;;4.38;;
59972;SDS011;55298;-36.624;-64.282;2023-03-01T06:03:27;5.50;;;4.22;;
59972;SDS011;55298;-36.624;-64.282;2023-03-01T06:05:55;7.38;;;4.30;;
59972;SDS011;55298;-36.624;-64.282;2023-03-01T06:08:24;6.60;;;4.20;;
59972;SDS011;55298;-36.624;-64.282;2023-03-01T06:10:53;5.78;;;4.65;;
59972;SDS011;55298;-36.624;-64.282;2023-03-01T06:13:21;7.35;;;4.53;;
59972;SDS011;55298;-36.624;-64.282;2023-03-01T06:15:50;7.63;;;4.10;;
59972;SDS011;55298;-36.624;-64.282;2023-03-01T06:18:17;5.57;;;3.92;;
59972;SDS011;55298;-36.624;-64.282;2023-03-01T06:20:51;7.70;;;4.38;;
59972;SDS011;55298;-36.624;-64.282;2023-03-01T06:23:21;4.10;;;3.65;;
59972;SDS011;55298;-36.624;-64.282;2023-03-01T06:25:51;6.03;;;4.55;;
59972;SDS011;55298;-36.624;-64.282;2023-03-01T06:28:19;5.95;;;4.00;;
59972;SDS011;55298;-36.624;-64.282;2023-03-01T06:30:48;5.85;;;4.80;;
59972;SDS011;55298;-36.624;-64.282;2023-03-01T06:33:17;4.78;;;4.28;;
59972;SDS011;55298;-36.624;-64.282;2023-03-01T06:35:47;7.85;;;4.40;;
59972;SDS011;55298;-36.624;-64.282;2023-03-01T06:38:15;5.07;;;3.75;;
59972;SDS011;55298;-36.624;-64.282;2023-03-01T06:40:44;8.15;;;4.30;;
59972;SDS011;55298;-36.624;-64.282;2023-03-01T06:45:44;6.90;;;4.65;;
59972;SDS011;55298;-36.624;-64.282;2023-03-01T06:48:12;7.22;;;4.47;;
59972;SDS011;55298;-36.624;-64.282;2023-03-01T06:50:40;5.57;;;4.22;;
59972;SDS011;55298;-36.624;-64.282;2023-03-01T06:53:07;5.43;;;4.30;;
59972;SDS011;55298;-36.624;-64.282;2023-03-01T06:55:35;6.20;;;4.65;;
59972;SDS011;55298;-36.624;-64.282;2023-03-01T06:58:03;5.93;;;3.90;;
59972;SDS011;55298;-36.624;-64.282;2023-03-01T07:00:31;4.60;;;3.70;;
59972;SDS011;55298;-36.624;-64.282;2023-03-01T07:02:59;5.05;;;4.07;;
59972;SDS011;55298;-36.624;-64.282;2023-03-01T07:05:28;7.43;;;4.15;;
59972;SDS011;55298;-36.624;-64.282;2023-03-01T07:07:56;9.88;;;5.20;;
59972;SDS011;55298;-36.624;-64.282;2023-03-01T07:10:24;8.95;;;6.43;;
59972;SDS011;55298;-36.624;-64.282;2023-03-01T07:12:55;10.07;;;7.50;;
59972;SDS011;55298;-36.624;-64.282;2023-03-01T07:15:23;19.25;;;11.82;;
59972;SDS011;55298;-36.624;-64.282;2023-03-01T07:17:52;20.92;;;12.82;;
59972;SDS011;55298;-36.624;-64.282;2023-03-01T07:20:20;21.08;;;15.02;;
59972;SDS011;55298;-36.624;-64.282;2023-03-01T07:22:52;33.35;;;19.08;;
59972;SDS011;55298;-36.624;-64.282;2023-03-01T07:25:20;38.72;;;25.23;;
59972;SDS011;55298;-36.624;-64.282;2023-03-01T07:27:50;37.40;;;27.35;;
59972;SDS011;55298;-36.624;-64.282;2023-03-01T07:30:19;32.92;;;24.55;;
59972;SDS011;55298;-36.624;-64.282;2023-03-01T07:32:47;28.23;;;21.92;;
59972;SDS011;55298;-36.624;-64.282;2023-03-01T07:35:15;24.05;;;17.65;;
59972;SDS011;55298;-36.624;-64.282;2023-03-01T07:37:42;21.20;;;14.23;;
59972;SDS011;55298;-36.624;-64.282;2023-03-01T07:40:10;18.90;;;12.20;;
59972;SDS011;55298;-36.624;-64.282;2023-03-01T07:42:39;13.30;;;9.88;;
59972;SDS011;55298;-36.624;-64.282;2023-03-01T07:45:06;12.70;;;6.78;;
59972;SDS011;55298;-36.624;-64.282;2023-03-01T07:47:35;8.43;;;5.60;;
59972;SDS011;55298;-36.624;-64.282;2023-03-01T07:50:03;9.45;;;4.75;;
59972;SDS011;55298;-36.624;-64.282;2023-03-01T07:52:31;6.70;;;4.43;;
59972;SDS011;55298;-36.624;-64.282;2023-03-01T07:54:59;6.15;;;4.10;;
59972;SDS011;55298;-36.624;-64.282;2023-03-01T07:57:26;8.43;;;4.03;;
59972;SDS011;55298;-36.624;-64.282;2023-03-01T07:59:54;5.13;;;3.60;;
59972;SDS011;55298;-36.624;-64.282;2023-03-01T08:02:22;5.90;;;3.80;;
59972;SDS011;55298;-36.624;-64.282;2023-03-01T08:04:49;3.72;;;3.33;;
59972;SDS011;55298;-36.624;-64.282;2023-03-01T08:07:17;4.78;;;3.40;;
59972;SDS011;55298;-36.624;-64.282;2023-03-01T08:09:46;5.88;;;3.72;;
59972;SDS011;55298;-36.624;-64.282;2023-03-01T08:12:14;4.72;;;3.45;;
59972;SDS011;55298;-36.624;-64.282;2023-03-01T08:14:42;5.18;;;3.50;;
59972;SDS011;55298;-36.624;-64.282;2023-03-01T08:17:12;5.57;;;3.75;;
59972;SDS011;55298;-36.624;-64.282;2023-03-01T08:19:42;10.73;;;5.38;;
59972;SDS011;55298;-36.624;-64.282;2023-03-01T08:22:10;6.63;;;5.03;;
59972;SDS011;55298;-36.624;-64.282;2023-03-01T08:24:38;10.00;;;5.50;;
59972;SDS011;55298;-36.624;-64.282;2023-03-01T08:27:05;14.25;;;6.35;;
59972;SDS011;55298;-36.624;-64.282;2023-03-01T08:29:34;16.38;;;7.97;;
59972;SDS011;55298;-36.624;-64.282;2023-03-01T08:32:02;21.58;;;12.50;;
59972;SDS011;55298;-36.624;-64.282;2023-03-01T08:34:30;23.42;;;13.45;;
59972;SDS011;55298;-36.624;-64.282;2023-03-01T08:36:57;34.42;;;20.05;;
59972;SDS011;55298;-36.624;-64.282;2023-03-01T08:39:25;35.03;;;22.42;;
59972;SDS011;55298;-36.624;-64.282;2023-03-01T08:41:53;38.47;;;22.00;;
59972;SDS011;55298;-36.624;-64.282;2023-03-01T08:44:21;44.63;;;24.85;;
59972;SDS011;55298;-36.624;-64.282;2023-03-01T08:46:50;42.20;;;25.27;;
59972;SDS011;55298;-36.624;-64.282;2023-03-01T08:49:20;50.00;;;26.92;;
59972;SDS011;55298;-36.624;-64.282;2023-03-01T08:51:48;44.05;;;27.33;;
59972;SDS011;55298;-36.624;-64.282;2023-03-01T08:54:17;45.75;;;26.33;;
59972;SDS011;55298;-36.624;-64.282;2023-03-01T08:56:46;44.88;;;27.45;;
59972;SDS011;55298;-36.624;-64.282;2023-03-01T08:59:15;41.13;;;24.48;;
59972;SDS011;55298;-36.624;-64.282;2023-03-01T09:01:45;40.28;;;22.88;;
59972;SDS011;55298;-36.624;-64.282;2023-03-01T09:04:12;33.42;;;19.85;;
59972;SDS011;55298;-36.624;-64.282;2023-03-01T09:06:42;21.50;;;13.20;;
59972;SDS011;55298;-36.624;-64.282;2023-03-01T09:09:15;21.73;;;13.50;;
59972;SDS011;55298;-36.624;-64.282;2023-03-01T09:11:44;19.00;;;11.73;;
59972;SDS011;55298;-36.624;-64.282;2023-03-01T09:14:15;21.15;;;13.15;;
59972;SDS011;55298;-36.624;-64.282;2023-03-01T09:16:43;21.67;;;11.43;;
59972;SDS011;55298;-36.624;-64.282;2023-03-01T09:19:12;11.77;;;7.53;;
59972;SDS011;55298;-36.624;-64.282;2023-03-01T09:21:40;10.75;;;5.32;;
59972;SDS011;55298;-36.624;-64.282;2023-03-01T09:24:18;10.07;;;4.32;;
59972;SDS011;55298;-36.624;-64.282;2023-03-01T09:26:48;6.30;;;4.47;;
59972;SDS011;55298;-36.624;-64.282;2023-03-01T09:29:16;8.43;;;4.80;;
59972;SDS011;55298;-36.624;-64.282;2023-03-01T09:31:44;9.63;;;4.53;;
59972;SDS011;55298;-36.624;-64.282;2023-03-01T09:34:12;10.63;;;5.20;;
59972;SDS011;55298;-36.624;-64.282;2023-03-01T09:36:43;7.38;;;4.65;;
59972;SDS011;55298;-36.624;-64.282;2023-03-01T09:39:10;8.13;;;4.10;;
59972;SDS011;55298;-36.624;-64.282;2023-03-01T09:41:54;9.60;;;4.35;;
59972;SDS011;55298;-36.624;-64.282;2023-03-01T09:44:30;4.55;;;3.28;;
59972;SDS011;55298;-36.624;-64.282;2023-03-01T09:50:04;7.03;;;3.13;;
59972;SDS011;55298;-36.624;-64.282;2023-03-01T09:52:44;4.50;;;2.80;;
59972;SDS011;55298;-36.624;-64.282;2023-03-01T09:55:25;5.18;;;2.20;;
59972;SDS011;55298;-36.624;-64.282;2023-03-01T10:00:50;6.90;;;2.50;;
59972;SDS011;55298;-36.624;-64.282;2023-03-01T10:06:19;6.78;;;2.60;;
59972;SDS011;55298;-36.624;-64.282;2023-03-01T10:08:53;10.00;;;2.72;;
59972;SDS011;55298;-36.624;-64.282;2023-03-01T10:11:30;5.20;;;2.13;;
59972;SDS011;55298;-36.624;-64.282;2023-03-01T10:14:05;3.42;;;2.10;;
59972;SDS011;55298;-36.624;-64.282;2023-03-01T10:19:42;5.05;;;2.35;;
59972;SDS011;55298;-36.624;-64.282;2023-03-01T10:24:59;2.67;;;1.70;;
59972;SDS011;55298;-36.624;-64.282;2023-03-01T10:27:34;10.18;;;2.60;;
59972;SDS011;55298;-36.624;-64.282;2023-03-01T10:30:16;5.20;;;1.80;;
59972;SDS011;55298;-36.624;-64.282;2023-03-01T10:32:49;5.95;;;2.17;;
59972;SDS011;55298;-36.624;-64.282;2023-03-01T10:35:21;3.53;;;2.00;;
59972;SDS011;55298;-36.624;-64.282;2023-03-01T10:37:57;2.85;;;1.80;;
59972;SDS011;55298;-36.624;-64.282;2023-03-01T10:40:32;4.22;;;1.83;;
59972;SDS011;55298;-36.624;-64.282;2023-03-01T10:43:03;4.78;;;2.05;;
59972;SDS011;55298;-36.624;-64.282;2023-03-01T10:45:34;4.85;;;2.20;;
59972;SDS011;55298;-36.624;-64.282;2023-03-01T10:48:11;9.60;;;3.72;;
59972;SDS011;55298;-36.624;-64.282;2023-03-01T10:50:43;12.85;;;7.07;;
59972;SDS011;55298;-36.624;-64.282;2023-03-01T10:53:21;9.10;;;3.85;;
59972;SDS011;55298;-36.624;-64.282;2023-03-01T10:55:57;14.00;;;9.45;;
59972;SDS011;55298;-36.624;-64.282;2023-03-01T10:58:29;6.78;;;2.60;;
59972;SDS011;55298;-36.624;-64.282;2023-03-01T11:00:59;7.53;;;2.92;;
59972;SDS011;55298;-36.624;-64.282;2023-03-01T11:03:31;7.22;;;2.67;;
59972;SDS011;55298;-36.624;-64.282;2023-03-01T11:06:04;6.05;;;2.95;;
59972;SDS011;55298;-36.624;-64.282;2023-03-01T11:08:52;4.22;;;2.00;;
59972;SDS011;55298;-36.624;-64.282;2023-03-01T11:11:22;4.18;;;1.83;;
59972;SDS011;55298;-36.624;-64.282;2023-03-01T11:13:59;5.10;;;1.65;;
59972;SDS011;55298;-36.624;-64.282;2023-03-01T11:16:40;6.05;;;1.90;;
59972;SDS011;55298;-36.624;-64.282;2023-03-01T11:19:17;10.45;;;2.13;;
59972;SDS011;55298;-36.624;-64.282;2023-03-01T11:24:41;8.73;;;2.08;;
59972;SDS011;55298;-36.624;-64.282;2023-03-01T11:29:59;8.95;;;2.20;;
59972;SDS011;55298;-36.624;-64.282;2023-03-01T11:32:39;11.65;;;2.88;;
59972;SDS011;55298;-36.624;-64.282;2023-03-01T11:35:20;7.15;;;1.90;;
59972;SDS011;55298;-36.624;-64.282;2023-03-01T11:37:59;7.47;;;4.70;;
59972;SDS011;55298;-36.624;-64.282;2023-03-01T11:40:42;9.82;;;8.70;;
59972;SDS011;55298;-36.624;-64.282;2023-03-01T11:43:24;8.65;;;3.60;;
59972;SDS011;55298;-36.624;-64.282;2023-03-01T11:52:14;12.82;;;2.50;;
59972;SDS011;55298;-36.624;-64.282;2023-03-01T11:55:04;14.30;;;3.22;;
59972;SDS011;55298;-36.624;-64.282;2023-03-01T11:57:59;15.07;;;3.53;;
59972;SDS011;55298;-36.624;-64.282;2023-03-01T12:00:44;16.60;;;5.68;;
59972;SDS011;55298;-36.624;-64.282;2023-03-01T12:03:42;11.93;;;4.10;;
59972;SDS011;55298;-36.624;-64.282;2023-03-01T12:17:36;6.50;;;1.50;;
59972;SDS011;55298;-36.624;-64.282;2023-03-01T12:23:08;5.45;;;1.50;;
59972;SDS011;55298;-36.624;-64.282;2023-03-01T12:26:10;8.48;;;2.00;;
59972;SDS011;55298;-36.624;-64.282;2023-03-01T12:31:49;7.22;;;1.73;;
59972;SDS011;55298;-36.624;-64.282;2023-03-01T12:37:33;8.23;;;2.05;;
59972;SDS011;55298;-36.624;-64.282;2023-03-01T12:48:56;5.28;;;1.40;;
59972;SDS011;55298;-36.624;-64.282;2023-03-01T12:51:37;2.80;;;1.10;;
59972;SDS011;55298;-36.624;-64.282;2023-03-01T12:56:51;5.38;;;1.13;;
59972;SDS011;55298;-36.624;-64.282;2023-03-01T12:59:22;3.42;;;1.10;;
59972;SDS011;55298;-36.624;-64.282;2023-03-01T13:02:09;6.93;;;1.20;;
59972;SDS011;55298;-36.624;-64.282;2023-03-01T13:04:51;6.03;;;1.63;;
59972;SDS011;55298;-36.624;-64.282;2023-03-01T13:07:34;4.38;;;1.40;;
59972;SDS011;55298;-36.624;-64.282;2023-03-01T13:10:23;7.65;;;1.70;;
59972;SDS011;55298;-36.624;-64.282;2023-03-01T13:13:02;7.40;;;2.45;;
59972;SDS011;55298;-36.624;-64.282;2023-03-01T13:15:41;8.48;;;7.72;;
59972;SDS011;55298;-36.624;-64.282;2023-03-01T13:20:59;3.72;;;1.20;;
59972;SDS011;55298;-36.624;-64.282;2023-03-01T13:23:31;5.90;;;1.48;;
59972;SDS011;55298;-36.624;-64.282;2023-03-01T13:26:04;2.83;;;1.50;;
59972;SDS011;55298;-36.624;-64.282;2023-03-01T13:28:40;3.60;;;1.08;;
59972;SDS011;55298;-36.624;-64.282;2023-03-01T13:34:40;6.53;;;1.77;;
59972;SDS011;55298;-36.624;-64.282;2023-03-01T13:37:10;6.95;;;2.33;;
59972;SDS011;55298;-36.624;-64.282;2023-03-01T13:39:48;8.43;;;1.40;;
59972;SDS011;55298;-36.624;-64.282;2023-03-01T13:45:04;5.95;;;1.42;;
59972;SDS011;55298;-36.624;-64.282;2023-03-01T13:47:53;7.20;;;1.50;;
59972;SDS011;55298;-36.624;-64.282;2023-03-01T13:50:27;9.55;;;1.50;;
59972;SDS011;55298;-36.624;-64.282;2023-03-01T13:52:59;6.13;;;2.55;;
59972;SDS011;55298;-36.624;-64.282;2023-03-01T13:58:25;7.90;;;2.60;;
59972;SDS011;55298;-36.624;-64.282;2023-03-01T14:01:04;6.30;;;1.55;;
59972;SDS011;55298;-36.624;-64.282;2023-03-01T14:03:39;6.47;;;1.73;;
59972;SDS011;55298;-36.624;-64.282;2023-03-01T14:06:13;2.80;;;1.00;;
59972;SDS011;55298;-36.624;-64.282;2023-03-01T14:08:44;4.93;;;1.20;;
59972;SDS011;55298;-36.624;-64.282;2023-03-01T14:17:07;8.88;;;1.83;;
59972;SDS011;55298;-36.624;-64.282;2023-03-01T14:19:54;6.35;;;1.30;;
59972;SDS011;55298;-36.624;-64.282;2023-03-01T14:22:26;3.75;;;1.50;;
59972;SDS011;55298;-36.624;-64.282;2023-03-01T14:24:57;5.10;;;1.42;;
59972;SDS011;55298;-36.624;-64.282;2023-03-01T14:27:32;4.13;;;1.23;;
59972;SDS011;55298;-36.624;-64.282;2023-03-01T14:32:54;8.82;;;1.80;;
59972;SDS011;55298;-36.624;-64.282;2023-03-01T14:35:27;5.55;;;2.08;;
59972;SDS011;55298;-36.624;-64.282;2023-03-01T14:37:57;3.80;;;1.42;;
59972;SDS011;55298;-36.624;-64.282;2023-03-01T14:40:27;14.40;;;11.20;;
59972;SDS011;55298;-36.624;-64.282;2023-03-01T14:42:59;6.60;;;2.50;;
59972;SDS011;55298;-36.624;-64.282;2023-03-01T14:45:29;10.40;;;2.20;;
59972;SDS011;55298;-36.624;-64.282;2023-03-01T14:47:59;6.60;;;1.75;;
59972;SDS011;55298;-36.624;-64.282;2023-03-01T14:50:30;6.07;;;1.42;;
59972;SDS011;55298;-36.624;-64.282;2023-03-01T14:53:02;4.82;;;1.48;;
59972;SDS011;55298;-36.624;-64.282;2023-03-01T14:55:36;4.38;;;1.30;;
59972;SDS011;55298;-36.624;-64.282;2023-03-01T14:58:15;4.68;;;1.33;;
59972;SDS011;55298;-36.624;-64.282;2023-03-01T15:03:25;3.78;;;1.05;;
59972;SDS011;55298;-36.624;-64.282;2023-03-01T15:06:04;4.97;;;2.20;;
59972;SDS011;55298;-36.624;-64.282;2023-03-01T15:08:35;8.80;;;2.65;;
59972;SDS011;55298;-36.624;-64.282;2023-03-01T15:11:15;4.40;;;1.70;;
59972;SDS011;55298;-36.624;-64.282;2023-03-01T15:13:52;8.45;;;2.10;;
59972;SDS011;55298;-36.624;-64.282;2023-03-01T15:16:23;5.03;;;1.30;;
59972;SDS011;55298;-36.624;-64.282;2023-03-01T15:18:55;7.28;;;1.30;;
59972;SDS011;55298;-36.624;-64.282;2023-03-01T15:21:27;3.35;;;1.27;;
59972;SDS011;55298;-36.624;-64.282;2023-03-01T15:24:06;1.67;;;0.90;;
59972;SDS011;55298;-36.624;-64.282;2023-03-01T15:26:51;6.18;;;2.03;;
59972;SDS011;55298;-36.624;-64.282;2023-03-01T15:29:26;7.72;;;5.18;;
59972;SDS011;55298;-36.624;-64.282;2023-03-01T15:32:00;4.00;;;1.27;;
59972;SDS011;55298;-36.624;-64.282;2023-03-01T15:34:30;4.22;;;1.60;;
59972;SDS011;55298;-36.624;-64.282;2023-03-01T15:39:33;6.85;;;1.80;;
59972;SDS011;55298;-36.624;-64.282;2023-03-01T15:47:54;5.10;;;2.40;;
59972;SDS011;55298;-36.624;-64.282;2023-03-01T15:50:25;2.47;;;1.20;;
59972;SDS011;55298;-36.624;-64.282;2023-03-01T15:52:56;2.07;;;1.30;;
59972;SDS011;55298;-36.624;-64.282;2023-03-01T15:55:28;4.95;;;1.80;;
59972;SDS011;55298;-36.624;-64.282;2023-03-01T15:58:00;3.30;;;0.90;;
59972;SDS011;55298;-36.624;-64.282;2023-03-01T16:00:32;3.63;;;1.20;;
59972;SDS011;55298;-36.624;-64.282;2023-03-01T16:03:00;3.53;;;0.95;;